ADDS METAR Data INFO
IDs: Format: Raw Decoded Include TAF

Data at: 0031 UTC 17 Dec 2017

KLKU 170015Z AUTO 18004KT 10SM CLR 04/M05 A3020 RMK AO2 T00421051
KLKU 162355Z AUTO 18005KT 10SM CLR 04/M05 A3019 RMK AO2 T00441052 10089 20043 400891088
KLKU 162335Z AUTO 18006KT 10SM CLR 05/M05 A3019 RMK AO2 T00461052
KLKU 162315Z AUTO 16005KT 10SM CLR 05/M05 A3018 RMK AO2 T00491051
KLKU 162255Z AUTO 17006KT 10SM CLR 05/M05 A3017 RMK AO2 T00501052
KLKU 162235Z AUTO 18005KT 10SM CLR 06/M05 A3017 RMK AO2 T00561052
KLKU 162215Z AUTO 19006KT 10SM CLR 06/M05 A3016 RMK AO2 T00601052
KLKU 162155Z AUTO 19007KT 10SM CLR 06/M05 A3015 RMK AO2 T00631053
KLKU 162135Z AUTO 19007KT 160V220 10SM CLR 07/M05 A3014 RMK AO2 T00671054
KLKU 162115Z AUTO 19007KT 170V230 10SM CLR 08/M06 A3014 RMK AO2 T00751055
KLKU 162055Z AUTO 19006KT 10SM CLR 08/M06 A3014 RMK AO2 T00791056
KLKU 162035Z AUTO 20009G16KT 170V230 10SM CLR 08/M06 A3014 RMK AO2 T00811057
KLKU 162015Z AUTO 19005KT 10SM CLR 08/M06 A3014 RMK AO2 T00841059
KLKU 161955Z AUTO 21008KT 160V230 10SM CLR 09/M06 A3014 RMK AO2 T00881059
KLKU 161935Z AUTO 20008KT 170V230 10SM CLR 09/M06 A3014 RMK AO2 T00861061
KLKU 161915Z AUTO 24007KT 200V260 10SM CLR 08/M06 A3014 RMK AO2 T00851063
KLKU 161855Z AUTO 21008G14KT 170V260 10SM CLR 08/M06 A3014 RMK AO2 T00801064
KLKU 161835Z AUTO 23007G15KT 190V270 10SM CLR 08/M06 A3015 RMK AO2 T00791065
KLKU 161815Z AUTO 23008KT 10SM CLR 07/M07 A3016 RMK AO2 T00751067
KLKU 161755Z AUTO 23008G15KT 190V250 10SM CLR 07/M07 A3016 RMK AO2 T00721066 10076 21063
KLKU 161735Z AUTO 20007G17KT 170V240 10SM CLR 07/M07 A3016 RMK AO2 T00671066
KLKU 161715Z AUTO 20007KT 10SM CLR 06/M07 A3018 RMK AO2 T00621066
KLKU 161655Z AUTO 22008KT 160V260 10SM CLR 06/M06 A3019 RMK AO2 T00631065
KLKU 161635Z AUTO 19006KT 10SM CLR 05/M07 A3020 RMK AO2 T00541066
KLKU 161615Z AUTO 21009KT 170V230 10SM CLR 05/M07 A3021 RMK AO2 T00541068
KLKU 161555Z AUTO 19008KT 150V210 10SM CLR 05/M07 A3023 RMK AO2 T00481067
KLKU 161535Z AUTO 21007G15KT 10SM CLR 04/M07 A3023 RMK AO2 T00411065
KLKU 161515Z AUTO 23006KT 10SM CLR 03/M06 A3023 RMK AO2 T00311061
KLKU 161455Z AUTO 23004KT 10SM CLR 02/M06 A3022 RMK AO2 T00221061
KLKU 161435Z AUTO 23005KT 10SM CLR 01/M06 A3022 RMK AO2 T00071065
KLKU 161415Z AUTO 23004KT 10SM CLR 00/M07 A3023 RMK AO2 T10031071
KLKU 161355Z AUTO 20004KT 10SM CLR M02/M07 A3020 RMK AO2 T10151073
KLKU 161335Z AUTO 22005KT 10SM CLR M02/M08 A3022 RMK AO2 T10221078
KLKU 161315Z AUTO 20005KT 10SM CLR M03/M08 A3022 RMK AO2 T10321080
KLKU 161255Z AUTO 24005KT 10SM CLR M04/M08 A3023 RMK AO2 T10391083
KLKU 161235Z AUTO 25003KT 10SM CLR M05/M09 A3021 RMK AO2 T10531090
KLKU 161215Z AUTO 20003KT 10SM CLR M04/M09 A3021 RMK AO2 T10431089
KLKU 161155Z AUTO 00000KT 10SM CLR M05/M09 A3021 RMK AO2 T10481089 11032 21077
KLKU 161135Z AUTO 23004KT 10SM CLR M05/M09 A3021 RMK AO2
KLKU 161115Z AUTO 21003KT 10SM CLR M06/M09 A3019 RMK AO2 T10641093
KLKU 161055Z AUTO 25003KT 10SM CLR M06/M09 A3018 RMK AO2 T10641091
KLKU 161035Z AUTO 00000KT 10SM CLR M05/M09 A3018 RMK AO2 T10451093
KLKU 161015Z AUTO 22003KT 10SM CLR M05/M09 A3017 RMK AO2 T10461090
KLKU 160955Z AUTO 23004KT 10SM CLR M04/M09 A3017 RMK AO2 T10421088
KLKU 160935Z AUTO 22003KT 10SM CLR M04/M09 A3015 RMK AO2 T10431088
KLKU 160915Z AUTO 23005KT 10SM CLR M03/M09 A3014 RMK AO2 T10341087
KLKU 160855Z AUTO 22003KT 10SM CLR M04/M09 A3014 RMK AO2 T10411087
KLKU 160835Z AUTO 21003KT 10SM CLR M04/M09 A3014 RMK AO2 T10421088
KLKU 160815Z AUTO 22003KT 10SM CLR M04/M09 A3014 RMK AO2 T10421088
KLKU 160755Z AUTO 24004KT 10SM CLR M04/M09 A3014 RMK AO2 T10391087
KLKU 160735Z AUTO 23004KT 10SM CLR M04/M09 A3013 RMK AO2 T10391089
KLKU 160715Z AUTO 23004KT 10SM CLR M03/M09 A3012 RMK AO2 T10341087
KLKU 160655Z AUTO 23005KT 10SM CLR M04/M09 A3011 RMK AO2 T10361086
KLKU 160635Z AUTO 23005KT 10SM CLR M04/M09 A3010 RMK AO2 T10361086
KLKU 160615Z AUTO 21004KT 10SM CLR M05/M08 A3010 RMK AO2 T10491084
KLKU 160555Z AUTO 21003KT 10SM CLR M08/M09 A3010 RMK AO2 T10761094 11050 21088
KLKU 160535Z AUTO 20003KT 10SM CLR M08/M09 A3010 RMK AO2 T10761089
KLKU 160515Z AUTO 20003KT 10SM CLR M06/M08 A3009 RMK AO2 T10571084
KLKU 160455Z AUTO 21003KT 10SM CLR M07/M09 A3009 RMK AO2 T10651087
KLKU 160435Z AUTO 22004KT 10SM CLR M06/M09 A3008 RMK AO2 T10611088
KLKU 160415Z AUTO 23004KT 10SM CLR M08/M09 A3008 RMK AO2 T10761089
KLKU 160355Z AUTO 22003KT 10SM CLR M08/M09 A3007 RMK AO2 T10781091
KLKU 160335Z AUTO 21003KT 10SM CLR M08/M09 A3007 RMK AO2 T10801091
KLKU 160315Z AUTO 21004KT 10SM CLR M08/M10 A3006 RMK AO2 T10841096
KLKU 160255Z AUTO 22003KT 10SM CLR M09/M10 A3006 RMK AO2 T10881098
KLKU 160235Z AUTO 19003KT 10SM CLR M09/M10 A3005 RMK AO2 T10861095
KLKU 160215Z AUTO 00000KT 10SM CLR M08/M09 A3005 RMK AO2 T10851094
KLKU 160155Z AUTO 00000KT 10SM CLR M08/M09 A3005 RMK AO2 T10841095
KLKU 160135Z AUTO 00000KT 10SM CLR M08/M09 A3004 RMK AO2
KLKU 160115Z AUTO 00000KT 10SM CLR M08/M09 A3004 RMK AO2 T10771088
KLKU 160055Z AUTO 00000KT 10SM CLR M08/M09 A3004 RMK AO2 T10761087
KLKU 160035Z AUTO 00000KT 10SM CLR M07/M09 A3003 RMK AO2 T10741087
KLKU 160015Z AUTO 00000KT 10SM CLR M07/M09 A3002 RMK AO2 T10711086
KLKU 152355Z AUTO 00000KT 10SM CLR M07/M08 A3001 RMK AO2 T10671083 11007 21068 400091068
KLKU 152335Z AUTO 00000KT 10SM CLR M06/M08 A3000 RMK AO2 T10621082
KLKU 152315Z AUTO 00000KT 10SM CLR M06/M08 A3000 RMK AO2 T10591081
KLKU 152255Z AUTO 00000KT 10SM CLR M05/M08 A2998 RMK AO2 T10531078
KLKU 152235Z AUTO 00000KT 10SM CLR M05/M08 A2998 RMK AO2 T10461076
KLKU 152215Z AUTO 00000KT 10SM CLR M04/M08 A2997 RMK AO2 T10381075
KLKU 152155Z AUTO 00000KT 10SM SCT050 M03/M08 A2996 RMK AO2 T10271076
KLKU 152135Z AUTO 00000KT 10SM BKN050 M01/M08 A2995 RMK AO2 T10121078
KLKU 152115Z AUTO 00000KT 10SM OVC050 M01/M08 A2996 RMK AO2 T10091076
KLKU 152055Z AUTO 16003KT 10SM OVC050 M01/M07 A2996 RMK AO2 T10081073
KLKU 152030Z AUTO 00000KT 10SM BKN023 BKN029 OVC055 M01/M07 A2996 RMK AO2 T10091072
KLKU 152015Z AUTO 00000KT 10SM OVC023 M01/M07 A2997 RMK AO2 T10111074
KLKU 151955Z AUTO 31006KT 10SM OVC023 M01/M08 A2997 RMK AO2 T10121078
KLKU 151935Z AUTO 33006KT 10SM OVC021 M01/M08 A2997 RMK AO2 T10111078
KLKU 151915Z AUTO 32005KT 10SM OVC021 M01/M08 A2996 RMK AO2 T10121082
KLKU 151855Z AUTO 31004KT 10SM OVC023 M01/M08 A2997 RMK AO2 T10121083
KLKU 151835Z AUTO 35003KT 10SM OVC023 M01/M08 A2996 RMK AO2 T10131084
KLKU 151815Z AUTO 32005KT 10SM OVC023 M01/M08 A2998 RMK AO2 T10151084
KLKU 151755Z AUTO 34005KT 10SM OVC023 M02/M08 A2998 RMK AO2 T10161081 11013 21023
KLKU 151735Z AUTO 32008KT 10SM OVC025 M01/M09 A2999 RMK AO2 T10141086
KLKU 151715Z AUTO 33006KT 10SM OVC027 M02/M09 A3000 RMK AO2 T10151086
KLKU 151655Z AUTO 35004KT 10SM OVC029 M01/M09 A3001 RMK AO2 T10141087
KLKU 151635Z AUTO 35004KT 10SM OVC029 M02/M09 A3003 RMK AO2 T10151086
KLKU 151615Z AUTO 01004KT 10SM OVC031 M01/M09 A3004 RMK AO2 T10151087
KLKU 151555Z AUTO 36004KT 10SM OVC031 M01/M09 A3005 RMK AO2 T10141086
KLKU 151535Z AUTO 07003KT 10SM OVC031 M02/M09 A3006 RMK AO2 T10161088
KLKU 151515Z AUTO 01005KT 10SM OVC030 M02/M09 A3008 RMK AO2 T10161088
KLKU 151455Z AUTO 34005KT 10SM OVC030 M02/M09 A3009 RMK AO2 T10151086
KLKU 151435Z AUTO 36004KT 10SM OVC028 M02/M09 A3010 RMK AO2 T10151089
KLKU 151415Z AUTO 01004KT 10SM OVC028 M02/M09 A3009 RMK AO2 T10171090
KLKU 151355Z AUTO 02005KT 10SM OVC028 M02/M09 A3009 RMK AO2 T10181090
KLKU 151335Z AUTO 01004KT 10SM OVC030 M02/M09 A3009 RMK AO2 T10191092
KLKU 151315Z AUTO 36004KT 10SM OVC032 M02/M09 A3009 RMK AO2 T10201092
KLKU 151255Z AUTO 02003KT 10SM OVC034 M02/M09 A3009 RMK AO2 T10211093
KLKU 151235Z AUTO 02003KT 10SM OVC036 M02/M10 A3010 RMK AO2 T10221096